Time;durP1;ratioP1;P1;durP2;ratioP2;P2;SDS_P1;SDS_P2;PMS_P1;PMS_P2;Temp;Humidity;BMP_temperature;BMP_pressure;BME280_temperature;BME280_humidity;BME280_pressure;Samples;Min_cycle;Max_cycle;Signal;HPM_P1;HPM_P2
2023/05/28 15:53:22;;;;;;;;;;;;;;;17.63;70.21;101488.00;5096321;27;20158;-76
2023/05/28 15:55:52;;;;;;;7.60;2.35;;;;;;;17.61;65.76;101487.34;5071899;28;19916;-76
2023/05/28 15:58:21;;;;;;;11.32;2.08;;;;;;;17.54;66.33;101489.84;5063926;28;20056;-77
2023/05/28 16:00:52;;;;;;;8.02;3.28;;;;;;;17.45;65.16;101490.84;5063933;28;20722;-75
2023/05/28 16:03:20;;;;;;;9.10;2.45;;;;;;;17.45;67.42;101477.47;5080108;28;20106;-76
2023/05/28 16:05:48;;;;;;;13.52;2.28;;;;;;;17.52;67.94;101475.81;5051297;28;20029;-76
2023/05/28 16:08:17;;;;;;;12.65;3.08;;;;;;;17.54;69.56;101481.81;4999555;28;20032;-76
2023/05/28 16:10:45;;;;;;;8.65;2.33;;;;;;;17.69;71.48;101474.00;5029568;28;20046;-76
2023/05/28 16:13:14;;;;;;;9.82;2.20;;;;;;;17.52;71.08;101483.00;4991126;28;20041;-76
2023/05/28 16:15:42;;;;;;;10.95;2.70;;;;;;;17.40;72.66;101494.00;5006149;28;20568;-76
2023/05/28 16:18:10;;;;;;;11.48;2.92;;;;;;;17.46;71.79;101485.31;4987058;28;20042;-76
2023/05/28 16:20:41;;;;;;;10.43;2.33;;;;;;;17.52;71.09;101493.69;5004953;28;20041;-77
2023/05/28 16:23:10;;;;;;;8.10;1.98;;;;;;;17.52;69.90;101493.69;5002959;28;20140;-77
2023/05/28 16:25:38;;;;;;;6.57;2.60;;;;;;;17.44;68.16;101490.00;5014927;28;20040;-75
2023/05/28 16:28:08;;;;;;;10.73;4.03;;;;;;;17.42;66.53;101491.16;5002883;28;20104;-75
2023/05/28 16:30:38;;;;;;;9.68;2.65;;;;;;;17.27;66.64;101501.63;5016281;28;20033;-75
2023/05/28 16:33:08;;;;;;;11.45;2.83;;;;;;;17.29;69.46;101492.47;5016616;28;20034;-77
2023/05/28 16:35:37;;;;;;;12.93;2.38;;;;;;;17.38;70.03;101497.81;5015018;28;20041;-75
2023/05/28 16:38:06;;;;;;;10.48;2.17;;;;;;;17.43;70.34;101503.53;5003933;28;20037;-77
2023/05/28 16:40:33;;;;;;;8.07;2.10;;;;;;;17.31;67.96;101506.50;5019550;28;20034;-76
2023/05/28 16:43:02;;;;;;;10.73;2.50;;;;;;;17.29;67.73;101495.16;5031555;28;20092;-74
2023/05/28 16:45:32;;;;;;;6.75;1.60;;;;;;;17.35;68.21;101504.34;4997936;28;20092;-77
2023/05/28 16:48:02;;;;;;;7.03;2.28;;;;;;;17.29;69.65;101508.50;5001540;28;20499;-77
2023/05/28 16:50:31;;;;;;;16.58;3.00;;;;;;;17.35;70.92;101497.16;5013646;28;20044;-76
2023/05/28 16:52:59;;;;;;;11.13;2.60;;;;;;;17.40;71.53;101498.50;4991178;28;20078;-77
2023/05/28 16:55:28;;;;;;;16.02;2.75;;;;;;;17.43;71.66;101506.19;4967874;28;20034;-76
2023/05/28 16:57:56;;;;;;;10.65;1.90;;;;;;;17.35;69.65;101515.88;4985147;28;20052;-80
2023/05/28 17:00:23;;;;;;;10.25;2.75;;;;;;;17.41;71.23;101510.84;4985984;28;20042;-80
2023/05/28 17:02:51;;;;;;;8.18;2.40;;;;;;;17.42;70.61;101515.22;4968017;28;20129;-76
2023/05/28 17:05:21;;;;;;;11.55;2.50;;;;;;;17.41;68.47;101501.00;4972659;28;20065;-76
2023/05/28 17:07:49;;;;;;;10.80;2.47;;;;;;;17.19;65.09;101508.66;4982637;28;20042;-76
2023/05/28 17:10:17;;;;;;;9.93;2.45;;;;;;;17.04;65.23;101512.91;4985133;28;20448;-76
2023/05/28 17:12:45;;;;;;;8.88;2.30;;;;;;;17.07;66.28;101508.06;4983859;28;20043;-76
2023/05/28 17:15:14;;;;;;;13.60;2.65;;;;;;;17.11;68.34;101503.28;4996828;28;20480;-75
2023/05/28 17:17:42;;;;;;;8.32;2.38;;;;;;;17.18;69.02;101503.47;5002676;28;20614;-76
2023/05/28 17:20:11;;;;;;;9.80;2.92;;;;;;;17.17;67.55;101494.59;4956709;28;20038;-75
2023/05/28 17:22:40;;;;;;;7.55;3.00;;;;;;;17.02;65.96;101496.19;4984540;28;20490;-77
2023/05/28 17:25:09;;;;;;;7.32;2.22;;;;;;;16.91;66.69;101492.84;4987139;28;20041;-75
2023/05/28 17:27:37;;;;;;;10.23;2.80;;;;;;;16.79;66.33;101494.94;4986120;28;20037;-75
2023/05/28 17:30:06;;;;;;;7.40;2.10;;;;;;;16.69;67.27;101496.91;4986471;28;20045;-75
2023/05/28 17:32:34;;;;;;;12.68;2.83;;;;;;;16.69;67.33;101492.38;4972548;28;20055;-77
2023/05/28 17:35:02;;;;;;;13.23;2.42;;;;;;;16.77;66.77;101493.44;4986360;28;20393;-76
2023/05/28 17:37:30;;;;;;;14.23;2.47;;;;;;;16.78;67.26;101485.25;4964697;28;20109;-77
2023/05/28 17:39:58;;;;;;;10.10;2.22;;;;;;;16.81;67.48;101484.09;4969370;28;20112;-76
2023/05/28 17:42:26;;;;;;;8.18;2.53;;;;;;;16.71;68.05;101497.56;4965365;28;20085;-76
2023/05/28 17:44:55;;;;;;;7.72;2.30;;;;;;;16.73;69.39;101491.09;4974057;28;20045;-77
2023/05/28 17:47:23;;;;;;;14.13;3.10;;;;;;;16.88;69.56;101493.16;4968628;28;20042;-76
2023/05/28 17:49:50;;;;;;;11.30;2.47;;;;;;;16.95;69.90;101491.50;4980334;28;20034;-77
2023/05/28 17:52:19;;;;;;;14.07;2.80;;;;;;;16.92;71.00;101494.50;4948536;28;20074;-76
2023/05/28 17:54:49;;;;;;;11.07;2.78;;;;;;;16.94;72.24;101499.69;4981300;28;20038;-76
2023/05/28 17:57:17;;;;;;;7.68;2.28;;;;;;;16.94;73.61;101489.00;4950575;28;20034;-77
2023/05/28 17:59:45;;;;;;;7.28;2.35;;;;;;;16.85;75.06;101494.28;4979055;28;20574;-76
2023/05/28 18:02:13;;;;;;;8.05;2.50;;;;;;;16.87;75.70;101491.47;4974289;28;20038;-76
2023/05/28 18:04:41;;;;;;;10.32;2.83;;;;;;;16.74;74.88;101490.06;4966618;28;20050;-76
2023/05/28 18:07:08;;;;;;;16.30;2.70;;;;;;;16.77;76.15;101504.09;4980957;28;20608;-77
2023/05/28 18:39:53;;;;;;;11.18;2.47;;;;;;;16.22;82.96;101526.47;5130784;27;20207;-73
2023/05/28 18:42:22;;;;;;;11.05;2.72;;;;;;;16.14;84.33;101525.53;5118450;28;20400;-73
2023/05/28 18:44:49;;;;;;;12.18;2.80;;;;;;;16.13;84.93;101532.72;5113564;28;20185;-73
2023/05/28 18:47:17;;;;;;;10.15;3.30;;;;;;;16.16;85.60;101526.22;5077071;28;20032;-73
2023/05/28 18:49:45;;;;;;;9.32;2.53;;;;;;;16.13;86.24;101524.72;5099278;28;20111;-73
2023/05/28 18:52:12;;;;;;;11.43;2.78;;;;;;;16.10;86.26;101519.69;5095949;28;20066;-73
2023/05/28 18:54:40;;;;;;;10.10;2.22;;;;;;;16.08;87.18;101529.69;5102520;28;20028;-73
2023/05/28 18:57:09;;;;;;;9.05;2.80;;;;;;;16.03;87.45;101535.47;5099658;28;20103;-73
2023/05/28 18:59:40;;;;;;;12.30;3.35;;;;;;;15.94;85.86;101537.19;5104629;28;20070;-73
2023/05/28 19:02:10;;;;;;;6.93;2.08;;;;;;;15.89;85.66;101534.16;5098120;28;20052;-73
2023/05/28 19:04:40;;;;;;;11.00;2.65;;;;;;;15.81;85.73;101536.75;5100524;28;20081;-73
2023/05/28 19:07:10;;;;;;;11.88;2.55;;;;;;;15.77;86.72;101541.53;5094210;28;20024;-73
2023/05/28 19:09:40;;;;;;;9.18;2.65;;;;;;;15.71;87.74;101539.47;5099385;28;20556;-73
2023/05/28 19:12:10;;;;;;;8.23;2.47;;;;;;;15.73;88.45;101534.84;5093337;28;20038;-74
2023/05/28 19:14:39;;;;;;;12.75;3.08;;;;;;;15.71;90.20;101539.47;5096814;28;20110;-73
2023/05/28 19:17:08;;;;;;;11.57;2.63;;;;;;;15.70;91.50;101549.28;5099198;28;20027;-73
2023/05/28 19:19:36;;;;;;;8.18;2.42;;;;;;;15.61;91.80;101543.03;5094879;28;20036;-73
2023/05/28 19:22:04;;;;;;;14.73;2.70;;;;;;;15.56;92.67;101542.66;5096796;28;20056;-73
2023/05/28 19:24:32;;;;;;;10.50;2.33;;;;;;;15.54;92.80;101542.00;5102824;28;20224;-74
2023/05/28 19:27:02;;;;;;;14.60;2.53;;;;;;;15.50;93.54;101543.25;5101720;28;20540;-73
2023/05/28 19:29:30;;;;;;;8.85;2.25;;;;;;;15.38;93.57;101539.97;5092801;28;20062;-74
2023/05/28 19:31:59;;;;;;;10.32;2.15;;;;;;;15.27;93.71;101549.00;5100268;28;20056;-73
2023/05/28 19:34:29;;;;;;;12.38;2.25;;;;;;;15.19;94.68;101552.41;5054493;28;20400;-73
2023/05/28 19:36:59;;;;;;;14.32;2.50;;;;;;;15.14;95.83;101549.34;5098759;28;20036;-73
2023/05/28 19:39:29;;;;;;;8.75;2.58;;;;;;;15.09;96.46;101547.13;5090541;28;20135;-74
2023/05/28 19:41:58;;;;;;;8.98;2.63;;;;;;;15.03;96.92;101546.88;5075284;28;20042;-73
2023/05/28 19:44:27;;;;;;;10.88;2.83;;;;;;;14.93;97.81;101558.41;5083165;28;20571;-73
2023/05/28 19:46:55;;;;;;;9.75;2.85;;;;;;;14.87;98.82;101548.34;5086104;28;20039;-73
2023/05/28 19:49:23;;;;;;;9.93;2.90;;;;;;;14.81;99.77;101544.41;5047981;28;20477;-73
2023/05/28 19:51:51;;;;;;;9.20;2.38;;;;;;;14.74;100.00;101543.31;5087517;28;20027;-73
2023/05/28 19:54:20;;;;;;;11.52;2.42;;;;;;;14.66;100.00;101552.00;5086710;28;20509;-84
2023/05/28 19:56:49;;;;;;;9.57;2.33;;;;;;;14.59;100.00;101548.22;5077357;28;20047;-84
2023/05/28 19:59:21;;;;;;;12.00;2.40;;;;;;;14.53;100.00;101549.66;5295113;22;20019;-89
2023/05/28 20:01:56;;;;;;;12.38;2.40;;;;;;;14.49;100.00;101561.56;5040880;28;20112;-92
2023/05/28 20:04:24;;;;;;;10.23;3.33;;;;;;;14.35;100.00;101558.34;5029848;28;20033;-91
2023/05/28 20:06:59;;;;;;;10.95;2.63;;;;;;;14.36;100.00;101568.03;5109285;23;20045;-92
2023/05/28 20:09:29;;;;;;;12.60;2.42;;;;;;;14.31;100.00;101562.28;5008461;28;20111;-91
2023/05/28 20:12:02;;;;;;;16.15;3.20;;;;;;;14.26;100.00;101562.72;5013918;28;20478;-91
2023/05/28 20:14:32;;;;;;;10.02;2.45;;;;;;;14.11;100.00;101564.13;5013111;28;20049;-90
2023/05/28 20:17:13;;;;;;;13.05;2.67;;;;;;;14.02;100.00;101561.31;5010385;28;20128;-92
2023/05/28 20:19:48;;;;;;;10.73;2.80;;;;;;;13.92;100.00;101571.09;5011200;28;20041;-91
2023/05/28 20:22:23;;;;;;;10.07;2.17;;;;;;;13.81;100.00;101566.75;4995535;28;20143;-92
2023/05/28 20:24:52;;;;;;;11.82;2.60;;;;;;;13.83;100.00;101570.13;5012906;28;20037;-89
2023/05/28 20:27:20;;;;;;;10.63;2.92;;;;;;;13.83;100.00;101569.28;5012519;28;20034;-89
2023/05/28 20:29:48;;;;;;;15.88;3.60;;;;;;;13.93;100.00;101570.13;5008337;28;20083;-89
2023/05/28 20:32:23;;;;;;;18.27;3.63;;;;;;;13.87;100.00;101573.34;5009346;28;20407;-89
2023/05/28 20:34:52;;;;;;;14.30;4.05;;;;;;;13.80;100.00;101567.72;5013341;28;20025;-93
2023/05/28 20:37:38;;;;;;;15.32;3.50;;;;;;;13.84;100.00;101578.94;5008021;28;20038;-92
2023/05/28 20:40:10;;;;;;;14.10;3.22;;;;;;;13.73;100.00;101582.53;5015870;28;20029;-92
2023/05/28 20:42:40;;;;;;;9.48;3.20;;;;;;;13.62;100.00;101586.16;5012264;28;20042;-91
2023/05/28 20:45:08;;;;;;;12.20;3.40;;;;;;;13.45;100.00;101591.13;5015505;28;20059;-88
2023/05/28 20:47:34;;;;;;;10.57;2.63;;;;;;;13.25;100.00;101583.06;5015669;28;20026;-88
2023/05/28 20:50:00;;;;;;;10.18;2.72;;;;;;;13.15;100.00;101591.00;5011135;28;20052;-88
2023/05/28 20:52:26;;;;;;;12.45;2.90;;;;;;;13.05;100.00;101597.22;5022533;28;20038;-88
2023/05/28 20:54:52;;;;;;;10.10;2.92;;;;;;;12.85;100.00;101592.66;5014957;28;20037;-88
2023/05/28 20:57:18;;;;;;;12.95;2.53;;;;;;;12.78;100.00;101596.81;5010051;28;20071;-88
2023/05/28 20:59:45;;;;;;;10.80;3.00;;;;;;;12.71;100.00;101593.00;5011736;28;20034;-89
2023/05/28 21:02:10;;;;;;;9.18;2.15;;;;;;;12.69;100.00;101603.75;5013943;28;20027;-88
2023/05/28 21:04:36;;;;;;;11.40;3.00;;;;;;;12.67;100.00;101610.16;4999465;28;20196;-88
2023/05/28 21:07:02;;;;;;;10.55;3.05;;;;;;;12.65;100.00;101610.28;5011940;28;20038;-89
2023/05/28 21:09:28;;;;;;;16.17;4.50;;;;;;;12.65;100.00;101608.47;4973767;28;20025;-90
2023/05/28 21:12:12;;;;;;;16.90;4.20;;;;;;;12.72;100.00;101608.81;5002044;28;20034;-90
2023/05/28 21:14:37;;;;;;;17.73;5.45;;;;;;;12.60;100.00;101604.50;5008055;28;20388;-87
2023/05/28 21:17:29;;;;;;;11.73;3.67;;;;;;;12.50;100.00;101610.59;5032412;28;20037;-88
2023/05/28 21:19:55;;;;;;;8.40;2.40;;;;;;;12.33;100.00;101608.50;5012125;28;20112;-89
2023/05/28 21:22:21;;;;;;;10.10;2.35;;;;;;;12.19;100.00;101604.34;5008916;28;20075;-89
2023/05/28 21:24:47;;;;;;;10.05;2.28;;;;;;;12.16;100.00;101618.69;4996343;28;20041;-89
2023/05/28 21:27:16;;;;;;;12.63;3.00;;;;;;;12.11;100.00;101612.91;5028677;28;20043;-90
2023/05/28 21:30:29;;;;;;;9.27;2.70;;;;;;;12.12;100.00;101620.75;5010564;28;20049;-94
2023/05/28 21:33:03;;;;;;;11.32;2.70;;;;;;;11.98;100.00;101605.09;4977342;28;20034;-92
2023/05/28 21:35:31;;;;;;;11.75;3.08;;;;;;;11.89;100.00;101612.84;4981320;28;20049;-90
2023/05/28 21:38:00;;;;;;;11.13;2.42;;;;;;;11.82;100.00;101609.00;4973417;28;20099;-92
2023/05/28 21:40:36;;;;;;;13.23;3.03;;;;;;;11.85;100.00;101615.88;4976650;28;20542;-92
2023/05/28 21:51:55;;;;;;;11.90;2.65;;;;;;;11.85;100.00;101613.22;4914704;29;20028;-91
2023/05/28 21:58:25;;;;;;;10.63;3.13;;;;;;;11.74;100.00;101614.91;4956019;28;20177;-92
2023/05/28 22:00:55;;;;;;;11.80;3.97;;;;;;;11.82;100.00;101626.72;4948842;28;20478;-91
2023/05/28 22:03:27;;;;;;;14.75;3.55;;;;;;;11.68;100.00;101612.75;4995195;28;20025;-91
2023/05/28 22:06:20;;;;;;;9.48;2.80;;;;;;;11.61;100.00;101616.88;5014529;28;20037;-92
2023/05/28 22:09:02;;;;;;;10.15;2.58;;;;;;;11.49;100.00;101627.47;5022338;28;20041;-92
2023/05/28 22:11:28;;;;;;;11.20;2.97;;;;;;;11.33;100.00;101617.22;5035618;28;20036;-91
2023/05/28 22:13:54;;;;;;;11.63;3.30;;;;;;;11.37;100.00;101631.91;5020245;28;20123;-90
2023/05/28 22:16:30;;;;;;;10.15;2.97;;;;;;;11.42;100.00;101628.88;5031730;28;20549;-91
2023/05/28 22:18:58;;;;;;;11.88;2.83;;;;;;;11.43;100.00;101633.25;5026774;28;20462;-91
2023/05/28 22:21:25;;;;;;;15.50;2.97;;;;;;;11.44;100.00;101634.91;5019771;28;20040;-92
2023/05/28 22:23:58;;;;;;;6.43;2.65;;;;;;;11.50;100.00;101631.78;5020426;28;20030;-92
2023/05/28 22:26:24;;;;;;;10.70;2.70;;;;;;;11.49;100.00;101635.41;5039538;28;20032;-90
2023/05/28 22:28:50;;;;;;;11.77;3.15;;;;;;;11.47;100.00;101632.03;5036707;28;20787;-91
2023/05/28 22:31:17;;;;;;;9.90;3.03;;;;;;;11.43;100.00;101632.38;5053900;28;20033;-91
2023/05/28 22:33:51;;;;;;;15.23;3.90;;;;;;;11.37;100.00;101641.66;5032226;28;20028;-90
2023/05/28 22:36:20;;;;;;;9.52;2.95;;;;;;;11.32;100.00;101635.88;5050137;28;20118;-91
2023/05/28 22:38:47;;;;;;;10.63;2.97;;;;;;;11.29;100.00;101640.44;5034020;28;20048;-89
2023/05/28 22:41:13;;;;;;;9.85;3.67;;;;;;;11.26;100.00;101648.63;5014482;28;20028;-90
2023/05/28 22:43:39;;;;;;;11.77;3.38;;;;;;;11.23;100.00;101642.72;5035925;28;20032;-90
2023/05/28 22:46:05;;;;;;;7.65;3.10;;;;;;;11.22;100.00;101641.03;5022410;28;20482;-90
2023/05/28 22:48:35;;;;;;;10.48;2.72;;;;;;;11.18;100.00;101644.91;5036577;28;20078;-89
2023/05/28 22:51:03;;;;;;;13.27;3.63;;;;;;;11.18;100.00;101640.41;5040305;28;20085;-89
2023/05/28 22:53:29;;;;;;;10.30;2.67;;;;;;;11.26;100.00;101655.75;5030649;28;20563;-90
2023/05/28 22:55:55;;;;;;;9.68;3.30;;;;;;;11.20;100.00;101642.94;5036026;28;20037;-89
2023/05/28 22:58:21;;;;;;;10.18;3.08;;;;;;;10.97;100.00;101635.84;5018539;28;20147;-89
2023/05/28 23:00:49;;;;;;;7.28;2.78;;;;;;;10.78;100.00;101649.63;5030462;28;20037;-85
2023/05/28 23:03:18;;;;;;;11.13;3.70;;;;;;;10.58;100.00;101641.38;5032383;28;20041;-90
2023/05/28 23:05:44;;;;;;;11.88;2.95;;;;;;;10.46;100.00;101640.50;5020504;28;20063;-90
2023/05/28 23:08:10;;;;;;;6.65;2.55;;;;;;;10.37;100.00;101634.06;5012173;28;20093;-91
2023/05/28 23:10:36;;;;;;;9.38;2.80;;;;;;;10.27;100.00;101633.88;5037194;28;20115;-89
2023/05/28 23:13:01;;;;;;;15.45;3.25;;;;;;;10.22;100.00;101645.75;5026144;28;20039;-90
2023/05/28 23:15:28;;;;;;;11.68;3.17;;;;;;;10.29;100.00;101649.63;5029487;28;20028;-90
2023/05/28 23:17:54;;;;;;;14.68;3.47;;;;;;;10.35;100.00;101646.53;5048656;28;20032;-91
2023/05/28 23:20:20;;;;;;;13.18;3.75;;;;;;;10.33;100.00;101640.53;5040526;28;20508;-91
2023/05/28 23:22:46;;;;;;;8.88;2.58;;;;;;;10.16;100.00;101633.84;5021617;28;20139;-89
2023/05/28 23:26:22;;;;;;;9.95;2.80;;;;;;;10.07;100.00;101640.63;5041176;28;20481;-91
2023/05/28 23:29:03;;;;;;;8.98;2.70;;;;;;;10.00;100.00;101634.94;5003888;28;20526;-93
2023/05/28 23:35:36;;;;;;;12.40;3.55;;;;;;;9.97;100.00;101637.81;5072995;28;20043;-90
2023/05/28 23:38:06;;;;;;;13.45;2.95;;;;;;;9.96;100.00;101641.41;5055235;28;20044;-91
2023/05/28 23:40:32;;;;;;;10.82;2.90;;;;;;;9.93;100.00;101647.78;5020843;28;20036;-92
2023/05/28 23:43:02;;;;;;;12.90;2.88;;;;;;;9.84;100.00;101642.28;5023563;28;20043;-91
2023/05/28 23:50:13;;;;;;;;;;;;;;;;;;;;;
2023/05/28 23:53:13;;;;;;;12.27;3.38;;;;;;;9.78;100.00;101651.47;5045159;28;20045;-91
